Time,TemperatureF,DewpointF,PressureIn,WindDirection,WindDirectionDegrees,WindSpeedMPH,WindSpeedGustMPH,Humidity,HourlyPrecipIn,Conditions,Clouds,dailyrainin,SoftwareType,DateUTC
2013-08-27 00:01:00,69.6,68.1,29.95,SSW,202,0.6,2.3,95,0.00,RA,,0.00,WeatherDisplay:10.37,2013-08-27 04:01:00,
2013-08-27 00:02:00,69.4,67.9,29.95,SSE,158,0.3,1.1,95,0.00,RA,,0.00,WeatherDisplay:10.37,2013-08-27 04:02:00,
2013-08-27 00:03:00,69.3,67.8,29.95,WNW,292,0.0,0.0,95,0.00,RA,,0.00,WeatherDisplay:10.37,2013-08-27 04:03:00,
2013-08-27 00:08:00,69.1,67.6,29.95,SW,225,1.4,1.4,95,0.00,RA,,0.00,WeatherDisplay:10.37,2013-08-27 04:08:00,
2013-08-27 00:13:00,68.9,67.4,29.95,South,180,0.0,0.0,95,0.00,SCT,,0.00,WeatherDisplay:10.37,2013-08-27 04:13:00,
2013-08-27 00:18:00,68.7,67.2,29.95,SSE,158,0.0,0.0,95,0.00,SCT,,0.00,WeatherDisplay:10.37,2013-08-27 04:18:00,
2013-08-27 00:23:00,68.5,67.0,29.95,SSW,202,1.0,2.3,95,0.00,SCT,,0.00,WeatherDisplay:10.37,2013-08-27 04:23:00,
2013-08-27 00:28:00,68.2,66.7,29.94,SSW,202,0.6,1.1,95,0.00,SCT,,0.00,WeatherDisplay:10.37,2013-08-27 04:28:00,
2013-08-27 00:33:00,68.2,66.7,29.94,SW,225,0.0,0.0,95,0.00,SCT,,0.00,WeatherDisplay:10.37,2013-08-27 04:33:00,
2013-08-27 00:38:00,68.0,66.5,29.94,South,180,0.0,0.0,95,0.00,SCT,,0.00,WeatherDisplay:10.37,2013-08-27 04:38:00,
2013-08-27 00:43:00,67.8,66.3,29.94,WSW,248,1.9,2.3,95,0.00,SCT,,0.00,WeatherDisplay:10.37,2013-08-27 04:43:00,
2013-08-27 00:48:00,67.8,66.3,29.94,WSW,248,1.5,1.7,95,0.00,SCT,,0.00,WeatherDisplay:10.37,2013-08-27 04:48:00,
2013-08-27 00:53:00,67.8,66.3,29.94,SW,225,0.6,2.2,95,0.00,SCT,,0.00,WeatherDisplay:10.37,2013-08-27 04:53:00,
2013-08-27 00:58:00,67.8,66.3,29.94,West,270,1.5,3.5,95,0.00,SCT,,0.00,WeatherDisplay:10.37,2013-08-27 04:58:00,
2013-08-27 01:03:00,67.8,66.3,29.94,SSW,202,1.2,2.3,95,0.00,SCT,,0.00,WeatherDisplay:10.37,2013-08-27 05:03:00,
2013-08-27 01:08:00,67.6,66.1,29.94,SW,225,0.0,0.0,95,0.00,SCT,,0.00,WeatherDisplay:10.37,2013-08-27 05:08:00,
2013-08-27 01:13:00,67.6,66.1,29.94,West,270,1.7,2.3,95,0.00,SCT,,0.00,WeatherDisplay:10.37,2013-08-27 05:13:00,
2013-08-27 01:18:00,67.6,66.1,29.93,SW,225,1.6,1.7,95,0.00,SCT,,0.00,WeatherDisplay:10.37,2013-08-27 05:18:00,
2013-08-27 01:23:00,67.5,66.0,29.93,South,180,0.6,1.1,95,0.00,SCT,,0.00,WeatherDisplay:10.37,2013-08-27 05:23:00,
2013-08-27 01:28:00,67.3,65.8,29.93,West,270,0.0,0.0,95,0.00,SCT,,0.00,WeatherDisplay:10.37,2013-08-27 05:28:00,
2013-08-27 01:33:00,67.3,65.8,29.93,SW,225,0.6,1.7,95,0.00,SCT,,0.00,WeatherDisplay:10.37,2013-08-27 05:33:00,
2013-08-27 01:38:00,67.3,65.8,29.94,West,270,0.0,0.0,95,0.00,SCT,,0.00,WeatherDisplay:10.37,2013-08-27 05:38:00,
2013-08-27 01:43:00,67.1,65.6,29.94,SSW,202,0.5,1.7,95,0.00,SCT,,0.00,WeatherDisplay:10.37,2013-08-27 05:43:00,
2013-08-27 01:48:00,67.1,65.6,29.94,SW,225,0.9,1.1,95,0.00,SCT,,0.00,WeatherDisplay:10.37,2013-08-27 05:48:00,
2013-08-27 01:53:00,67.1,65.6,29.94,SSW,202,1.0,2.3,95,0.00,SCT,,0.00,WeatherDisplay:10.37,2013-08-27 05:53:00,
2013-08-27 01:58:00,67.1,65.6,29.94,SW,225,1.8,2.3,95,0.00,SCT,,0.00,WeatherDisplay:10.37,2013-08-27 05:58:00,
2013-08-27 02:03:00,67.1,65.6,29.93,South,180,1.8,2.3,95,0.00,FEW,,0.00,WeatherDisplay:10.37,2013-08-27 06:03:00,
2013-08-27 02:08:00,67.1,65.6,29.93,WNW,292,2.4,2.7,95,0.00,FEW,,0.00,WeatherDisplay:10.37,2013-08-27 06:08:00,
2013-08-27 02:13:00,67.1,65.6,29.93,SW,225,2.1,2.3,95,0.00,FEW,,0.00,WeatherDisplay:10.37,2013-08-27 06:13:00,
2013-08-27 02:18:00,67.1,65.6,29.94,West,270,2.3,3.5,95,0.00,FEW,,0.00,WeatherDisplay:10.37,2013-08-27 06:18:00,
2013-08-27 02:23:00,67.1,65.6,29.94,West,270,1.6,1.6,95,0.00,FEW,,0.00,WeatherDisplay:10.37,2013-08-27 06:23:00,
2013-08-27 02:28:00,67.1,65.6,29.93,WSW,248,1.7,2.3,95,0.00,FEW,,0.00,WeatherDisplay:10.37,2013-08-27 06:28:00,
2013-08-27 02:33:00,67.1,65.6,29.93,SSW,202,0.7,2.3,95,0.00,FEW,,0.00,WeatherDisplay:10.37,2013-08-27 06:33:00,
2013-08-27 02:38:00,67.1,65.6,29.93,West,270,0.0,0.0,95,0.00,FEW,,0.00,WeatherDisplay:10.37,2013-08-27 06:38:00,
2013-08-27 02:43:00,66.9,65.4,29.93,West,270,0.0,0.0,95,0.00,FEW,,0.00,WeatherDisplay:10.37,2013-08-27 06:43:00,
2013-08-27 02:48:00,66.7,65.2,29.93,East,90,0.0,0.0,95,0.00,FEW,,0.00,WeatherDisplay:10.37,2013-08-27 06:48:00,
2013-08-27 02:53:00,66.6,65.1,29.93,South,180,0.0,0.0,95,0.00,FEW,,0.00,WeatherDisplay:10.37,2013-08-27 06:53:00,
2013-08-27 02:58:00,66.4,64.9,29.93,SSW,202,0.0,0.0,95,0.00,FEW,,0.00,WeatherDisplay:10.37,2013-08-27 06:58:00,
2013-08-27 03:03:00,66.4,64.9,29.93,South,180,0.5,1.7,95,0.00,BKN,,0.00,WeatherDisplay:10.37,2013-08-27 07:03:00,
2013-08-27 03:08:00,66.4,64.9,29.93,SE,135,0.0,2.3,95,0.00,BKN,,0.00,WeatherDisplay:10.37,2013-08-27 07:08:00,
2013-08-27 03:13:00,66.4,64.9,29.93,SW,225,0.7,1.1,95,0.00,BKN,,0.00,WeatherDisplay:10.37,2013-08-27 07:13:00,
2013-08-27 03:18:00,66.4,64.9,29.92,ENE,68,0.0,0.0,95,0.00,BKN,,0.00,WeatherDisplay:10.37,2013-08-27 07:18:00,
2013-08-27 03:23:00,66.2,64.7,29.92,SE,135,0.2,1.1,95,0.00,BKN,,0.00,WeatherDisplay:10.37,2013-08-27 07:23:00,
2013-08-27 03:28:00,66.2,64.7,29.92,South,180,0.2,1.7,95,0.00,BKN,,0.00,WeatherDisplay:10.37,2013-08-27 07:28:00,
2013-08-27 03:33:00,66.2,64.7,29.92,WSW,248,1.6,1.7,95,0.00,BKN,,0.00,WeatherDisplay:10.37,2013-08-27 07:33:00,
2013-08-27 03:38:00,66.2,64.7,29.92,SW,225,1.0,1.1,95,0.00,BKN,,0.00,WeatherDisplay:10.37,2013-08-27 07:38:00,
2013-08-27 03:43:00,66.4,64.9,29.92,SW,225,0.6,1.1,95,0.00,BKN,,0.00,WeatherDisplay:10.37,2013-08-27 07:43:00,
2013-08-27 03:48:00,66.2,64.7,29.92,WSW,248,0.0,0.0,95,0.00,BKN,,0.00,WeatherDisplay:10.37,2013-08-27 07:48:00,
2013-08-27 03:53:00,66.4,64.9,29.93,West,270,0.0,0.0,95,0.00,BKN,,0.00,WeatherDisplay:10.37,2013-08-27 07:53:00,
2013-08-27 03:58:00,66.4,64.9,29.93,SSW,202,0.0,1.1,95,0.00,BKN,,0.00,WeatherDisplay:10.37,2013-08-27 07:58:00,
2013-08-27 04:03:00,66.6,65.1,29.92,WSW,248,0.2,1.1,95,0.00,BKN,,0.00,WeatherDisplay:10.37,2013-08-27 08:03:00,
2013-08-27 04:08:00,66.6,65.1,29.92,SW,225,0.0,0.0,95,0.00,BKN,,0.00,WeatherDisplay:10.37,2013-08-27 08:08:00,
2013-08-27 04:13:00,66.7,65.2,29.92,SSW,202,0.0,0.0,95,0.00,BKN,,0.00,WeatherDisplay:10.37,2013-08-27 08:13:00,
2013-08-27 04:18:00,66.7,65.2,29.92,SW,225,0.0,0.0,95,0.00,BKN,,0.00,WeatherDisplay:10.37,2013-08-27 08:18:00,
2013-08-27 04:23:00,66.9,65.4,29.92,ESE,112,0.0,0.0,95,0.00,BKN,,0.00,WeatherDisplay:10.37,2013-08-27 08:23:00,
2013-08-27 04:28:00,66.9,65.4,29.92,WSW,248,0.0,0.0,95,0.00,BKN,,0.00,WeatherDisplay:10.37,2013-08-27 08:28:00,
2013-08-27 04:33:00,66.9,65.4,29.92,SW,225,0.0,0.0,95,0.00,BKN,,0.00,WeatherDisplay:10.37,2013-08-27 08:33:00,
2013-08-27 04:38:00,67.1,65.6,29.92,SSW,202,0.0,0.0,95,0.00,BKN,,0.00,WeatherDisplay:10.37,2013-08-27 08:38:00,
2013-08-27 04:43:00,67.1,65.6,29.92,NNE,22,0.0,0.0,95,0.00,BKN,,0.00,WeatherDisplay:10.37,2013-08-27 08:43:00,
2013-08-27 04:48:00,67.1,65.6,29.92,West,270,0.2,1.1,95,0.00,BKN,,0.00,WeatherDisplay:10.37,2013-08-27 08:48:00,
2013-08-27 04:53:00,67.1,65.6,29.92,SW,225,0.0,0.0,95,0.00,BKN,,0.00,WeatherDisplay:10.37,2013-08-27 08:53:00,
2013-08-27 04:58:00,67.1,65.6,29.92,SSE,158,0.0,0.0,95,0.00,BKN,,0.00,WeatherDisplay:10.37,2013-08-27 08:58:00,
2013-08-27 05:03:00,67.1,65.6,29.92,SSW,202,0.7,1.1,95,0.00,BKN,,0.00,WeatherDisplay:10.37,2013-08-27 09:03:00,
2013-08-27 05:08:00,67.3,65.8,29.92,SW,225,1.0,1.1,95,0.00,BKN,,0.00,WeatherDisplay:10.37,2013-08-27 09:08:00,
2013-08-27 05:13:00,67.3,65.8,29.92,SW,225,1.5,2.7,95,0.00,BKN,,0.00,WeatherDisplay:10.37,2013-08-27 09:13:00,
2013-08-27 05:18:00,67.3,65.8,29.92,WSW,248,1.8,2.3,95,0.00,BKN,,0.00,WeatherDisplay:10.37,2013-08-27 09:18:00,
2013-08-27 05:23:00,67.3,65.8,29.92,West,270,2.1,2.7,95,0.00,BKN,,0.00,WeatherDisplay:10.37,2013-08-27 09:23:00,
2013-08-27 05:28:00,67.1,65.6,29.92,South,180,1.7,2.2,95,0.00,BKN,,0.00,WeatherDisplay:10.37,2013-08-27 09:28:00,
2013-08-27 05:33:00,67.1,65.6,29.92,SSW,202,1.5,2.3,95,0.00,BKN,,0.00,WeatherDisplay:10.37,2013-08-27 09:33:00,
2013-08-27 05:38:00,67.1,65.6,29.93,SW,225,1.5,1.7,95,0.00,BKN,,0.00,WeatherDisplay:10.37,2013-08-27 09:38:00,
2013-08-27 05:43:00,66.9,65.4,29.93,WSW,248,0.9,1.1,95,0.00,BKN,,0.00,WeatherDisplay:10.37,2013-08-27 09:43:00,
2013-08-27 05:48:00,66.9,65.4,29.93,West,270,0.2,1.1,95,0.00,BKN,,0.00,WeatherDisplay:10.37,2013-08-27 09:48:00,
2013-08-27 05:53:00,66.9,65.4,29.94,SW,225,1.4,1.4,95,0.00,BKN,,0.00,WeatherDisplay:10.37,2013-08-27 09:53:00,
2013-08-27 05:58:00,67.3,65.8,29.94,West,270,2.0,2.7,95,0.00,BKN,,0.00,WeatherDisplay:10.37,2013-08-27 09:58:00,
2013-08-27 06:03:00,67.5,66.0,29.93,WSW,248,2.1,2.7,95,0.00,OVC,,0.00,WeatherDisplay:10.37,2013-08-27 10:03:00,
2013-08-27 06:08:00,67.6,66.1,29.93,WNW,292,2.0,2.7,95,0.00,OVC,,0.00,WeatherDisplay:10.37,2013-08-27 10:08:00,
2013-08-27 06:13:00,67.6,66.1,29.93,SW,225,0.9,1.1,95,0.00,OVC,,0.00,WeatherDisplay:10.37,2013-08-27 10:13:00,
2013-08-27 06:18:00,67.6,66.1,29.93,WSW,248,0.0,0.0,95,0.00,OVC,,0.00,WeatherDisplay:10.37,2013-08-27 10:18:00,
2013-08-27 06:23:00,67.8,66.3,29.93,SW,225,1.6,2.3,95,0.00,OVC,,0.00,WeatherDisplay:10.37,2013-08-27 10:23:00,
2013-08-27 06:28:00,68.0,66.5,29.93,SW,225,1.6,2.3,95,0.00,OVC,,0.00,WeatherDisplay:10.37,2013-08-27 10:28:00,
2013-08-27 06:33:00,68.2,66.7,29.93,South,180,1.7,2.3,95,0.00,OVC,,0.00,WeatherDisplay:10.37,2013-08-27 10:33:00,
2013-08-27 06:38:00,68.4,66.9,29.93,WSW,248,1.1,2.3,95,0.00,OVC,,0.00,WeatherDisplay:10.37,2013-08-27 10:38:00,
2013-08-27 06:43:00,68.5,67.0,29.93,SSW,202,1.7,1.7,95,0.00,OVC,,0.00,WeatherDisplay:10.37,2013-08-27 10:43:00,
2013-08-27 06:48:00,68.5,67.0,29.93,SSW,202,2.1,2.7,95,0.00,OVC,,0.00,WeatherDisplay:10.37,2013-08-27 10:48:00,
2013-08-27 06:53:00,68.7,67.2,29.93,SW,225,1.6,2.3,95,0.00,OVC,,0.00,WeatherDisplay:10.37,2013-08-27 10:53:00,
2013-08-27 06:58:00,68.9,67.4,29.93,West,270,1.9,2.7,95,0.00,OVC,,0.00,WeatherDisplay:10.37,2013-08-27 10:58:00,
2013-08-27 07:03:00,69.3,67.8,29.93,West,270,3.3,4.6,95,0.00,OVC,,0.00,WeatherDisplay:10.37,2013-08-27 11:03:00,
2013-08-27 07:08:00,69.4,67.9,29.93,WNW,292,1.3,2.3,95,0.00,OVC,,0.00,WeatherDisplay:10.37,2013-08-27 11:08:00,
2013-08-27 07:13:00,69.4,67.9,29.93,WSW,248,2.1,2.7,95,0.00,OVC,,0.00,WeatherDisplay:10.37,2013-08-27 11:13:00,
2013-08-27 07:18:00,69.8,68.3,29.93,SSW,202,1.9,2.3,95,0.00,OVC,,0.00,WeatherDisplay:10.37,2013-08-27 11:18:00,
2013-08-27 07:23:00,70.0,68.5,29.93,SW,225,1.9,2.3,95,0.00,OVC,,0.00,WeatherDisplay:10.37,2013-08-27 11:23:00,
2013-08-27 07:28:00,70.2,68.7,29.93,SSW,202,1.7,2.3,95,0.00,OVC,,0.00,WeatherDisplay:10.37,2013-08-27 11:28:00,
2013-08-27 07:33:00,70.5,69.0,29.93,WSW,248,1.7,1.7,95,0.00,OVC,,0.00,WeatherDisplay:10.37,2013-08-27 11:33:00,
2013-08-27 07:38:00,70.5,69.0,29.94,West,270,0.0,1.1,95,0.00,OVC,,0.00,WeatherDisplay:10.37,2013-08-27 11:38:00,
2013-08-27 07:43:00,70.7,69.2,29.94,SSW,202,3.3,4.7,95,0.00,OVC,,0.00,WeatherDisplay:10.37,2013-08-27 11:43:00,
2013-08-27 07:48:00,70.9,69.4,29.94,SW,225,2.4,2.4,95,0.00,OVC,,0.00,WeatherDisplay:10.37,2013-08-27 11:48:00,
2013-08-27 07:53:00,71.1,69.6,29.93,SW,225,2.2,3.5,95,0.00,OVC,,0.00,WeatherDisplay:10.37,2013-08-27 11:53:00,
2013-08-27 07:58:00,71.2,69.7,29.93,SW,225,3.3,4.6,95,0.00,OVC,,0.00,WeatherDisplay:10.37,2013-08-27 11:58:00,
2013-08-27 08:03:00,71.4,69.9,29.93,South,180,1.4,2.3,95,0.00,OVC,,0.00,WeatherDisplay:10.37,2013-08-27 12:03:00,
2013-08-27 08:08:00,71.4,69.9,29.93,SW,225,3.1,4.6,95,0.00,OVC,,0.00,WeatherDisplay:10.37,2013-08-27 12:08:00,
2013-08-27 08:13:00,71.4,69.9,29.93,SW,225,2.7,3.5,95,0.00,OVC,,0.00,WeatherDisplay:10.37,2013-08-27 12:13:00,
2013-08-27 08:18:00,71.4,69.9,29.93,WSW,248,2.5,3.5,95,0.00,OVC,,0.00,WeatherDisplay:10.37,2013-08-27 12:18:00,
2013-08-27 08:23:00,71.4,69.9,29.93,West,270,3.3,4.6,95,0.00,OVC,,0.00,WeatherDisplay:10.37,2013-08-27 12:23:00,
2013-08-27 08:28:00,71.4,69.9,29.94,WSW,248,3.6,3.7,95,0.00,OVC,,0.00,WeatherDisplay:10.37,2013-08-27 12:28:00,
2013-08-27 08:33:00,71.6,70.1,29.94,West,270,2.2,2.7,95,0.00,OVC,,0.00,WeatherDisplay:10.37,2013-08-27 12:33:00,
2013-08-27 08:38:00,72.0,70.5,29.93,SW,225,2.2,2.7,95,0.00,OVC,,0.00,WeatherDisplay:10.37,2013-08-27 12:38:00,
2013-08-27 08:43:00,72.3,70.8,29.93,WSW,248,5.2,5.8,95,0.00,OVC,,0.00,WeatherDisplay:10.37,2013-08-27 12:43:00,
2013-08-27 08:48:00,72.5,71.0,29.93,SW,225,1.8,2.3,95,0.00,OVC,,0.00,WeatherDisplay:10.37,2013-08-27 12:48:00,
2013-08-27 08:53:00,72.9,71.1,29.93,West,270,2.7,4.6,94,0.00,OVC,,0.00,WeatherDisplay:10.37,2013-08-27 12:53:00,
2013-08-27 08:58:00,72.9,71.1,29.93,West,270,2.9,3.5,94,0.00,OVC,,0.00,WeatherDisplay:10.37,2013-08-27 12:58:00,
2013-08-27 09:03:00,72.9,71.1,29.94,WSW,248,4.0,5.8,94,0.00,OVC,,0.00,WeatherDisplay:10.37,2013-08-27 13:03:00,
2013-08-27 09:08:00,72.9,71.1,29.94,SW,225,3.2,4.7,94,0.00,OVC,,0.00,WeatherDisplay:10.37,2013-08-27 13:08:00,
2013-08-27 09:13:00,72.9,71.1,29.94,SW,225,3.0,4.6,94,0.00,OVC,,0.00,WeatherDisplay:10.37,2013-08-27 13:13:00,
2013-08-27 09:18:00,72.9,71.1,29.93,SW,225,3.6,5.8,94,0.00,OVC,,0.00,WeatherDisplay:10.37,2013-08-27 13:18:00,
2013-08-27 09:23:00,72.9,71.1,29.93,SSW,202,5.3,5.8,94,0.00,OVC,,0.00,WeatherDisplay:10.37,2013-08-27 13:23:00,
2013-08-27 09:28:00,72.9,71.1,29.94,West,270,2.5,3.5,94,0.00,OVC,,0.00,WeatherDisplay:10.37,2013-08-27 13:28:00,
2013-08-27 09:33:00,73.2,71.1,29.94,SW,225,5.3,6.9,93,0.00,OVC,,0.00,WeatherDisplay:10.37,2013-08-27 13:33:00,
2013-08-27 09:38:00,73.0,70.9,29.93,NW,315,3.7,5.3,93,0.00,OVC,,0.00,WeatherDisplay:10.37,2013-08-27 13:38:00,
2013-08-27 09:43:00,73.2,71.1,29.93,WSW,248,5.2,5.8,93,0.00,OVC,,0.00,WeatherDisplay:10.37,2013-08-27 13:43:00,
2013-08-27 09:48:00,73.4,71.3,29.93,West,270,3.2,3.5,93,0.00,OVC,,0.00,WeatherDisplay:10.37,2013-08-27 13:48:00,
2013-08-27 09:53:00,73.8,71.3,29.94,South,180,3.6,4.6,92,0.00,OVC,,0.00,WeatherDisplay:10.37,2013-08-27 13:53:00,
2013-08-27 09:58:00,74.1,71.6,29.94,WSW,248,2.7,3.5,92,0.00,OVC,,0.00,WeatherDisplay:10.37,2013-08-27 13:58:00,
2013-08-27 10:03:00,74.3,71.5,29.94,WSW,248,3.4,4.6,91,0.00,OVC,,0.00,WeatherDisplay:10.37,2013-08-27 14:03:00,
2013-08-27 10:08:00,74.5,71.4,29.94,WSW,248,3.8,4.7,90,0.00,OVC,,0.00,WeatherDisplay:10.37,2013-08-27 14:08:00,
2013-08-27 10:13:00,74.8,71.7,29.94,SW,225,3.1,4.7,90,0.00,OVC,,0.00,WeatherDisplay:10.37,2013-08-27 14:13:00,
2013-08-27 10:18:00,75.4,71.9,29.93,West,270,2.7,3.5,89,0.00,OVC,,0.00,WeatherDisplay:10.37,2013-08-27 14:18:00,
2013-08-27 10:23:00,75.6,71.8,29.93,South,180,4.1,4.6,88,0.00,OVC,,0.00,WeatherDisplay:10.37,2013-08-27 14:23:00,
2013-08-27 10:28:00,75.9,71.8,29.93,West,270,5.1,5.8,87,0.00,OVC,,0.00,WeatherDisplay:10.37,2013-08-27 14:28:00,
2013-08-27 10:33:00,76.5,72.0,29.93,WSW,248,4.4,4.7,86,0.00,OVC,,0.00,WeatherDisplay:10.37,2013-08-27 14:33:00,
2013-08-27 10:38:00,76.5,71.7,29.92,West,270,5.3,5.8,85,0.00,OVC,,0.00,WeatherDisplay:10.37,2013-08-27 14:38:00,
2013-08-27 10:43:00,77.0,71.8,29.92,SW,225,4.5,5.8,84,0.00,OVC,,0.00,WeatherDisplay:10.37,2013-08-27 14:43:00,
2013-08-27 10:48:00,78.3,72.0,29.92,WSW,248,3.6,4.6,81,0.00,OVC,,0.00,WeatherDisplay:10.37,2013-08-27 14:48:00,
2013-08-27 10:53:00,78.6,71.9,29.92,West,270,3.8,4.6,80,0.00,OVC,,0.00,WeatherDisplay:10.37,2013-08-27 14:53:00,
2013-08-27 10:58:00,78.8,71.7,29.92,WSW,248,3.8,4.7,79,0.00,OVC,,0.00,WeatherDisplay:10.37,2013-08-27 14:58:00,
2013-08-27 11:03:00,80.2,72.3,29.93,West,270,3.7,4.6,77,0.00,BKN,,0.00,WeatherDisplay:10.37,2013-08-27 15:03:00,
2013-08-27 11:08:00,79.5,71.3,29.93,WSW,248,4.5,5.8,76,0.00,BKN,,0.00,WeatherDisplay:10.37,2013-08-27 15:08:00,
2013-08-27 11:13:00,79.5,71.7,29.93,WSW,248,2.8,3.5,77,0.00,BKN,,0.00,WeatherDisplay:10.37,2013-08-27 15:13:00,
2013-08-27 11:18:00,79.7,71.8,29.93,WSW,248,2.5,4.6,77,0.00,BKN,,0.00,WeatherDisplay:10.37,2013-08-27 15:18:00,
2013-08-27 11:23:00,80.6,71.5,29.93,SW,225,4.5,5.8,74,0.00,BKN,,0.00,WeatherDisplay:10.37,2013-08-27 15:23:00,
2013-08-27 11:28:00,81.5,72.0,29.93,SW,225,4.0,5.8,73,0.00,BKN,,0.00,WeatherDisplay:10.37,2013-08-27 15:28:00,
2013-08-27 11:33:00,80.1,71.8,29.93,WNW,292,4.6,7.8,76,0.00,BKN,,0.00,WeatherDisplay:10.37,2013-08-27 15:33:00,
2013-08-27 11:38:00,81.1,72.0,29.93,WSW,248,5.7,8.1,74,0.00,BKN,,0.00,WeatherDisplay:10.37,2013-08-27 15:38:00,
2013-08-27 11:43:00,81.9,72.4,29.93,SW,225,5.3,8.1,73,0.00,BKN,,0.00,WeatherDisplay:10.37,2013-08-27 15:43:00,
2013-08-27 11:48:00,80.2,71.6,29.93,NW,315,6.0,9.4,75,0.00,BKN,,0.00,WeatherDisplay:10.37,2013-08-27 15:48:00,
2013-08-27 11:53:00,79.9,71.7,29.93,West,270,8.0,9.2,76,0.00,BKN,,0.00,WeatherDisplay:10.37,2013-08-27 15:53:00,
2013-08-27 11:58:00,81.0,72.7,29.93,East,90,5.8,6.9,76,0.00,BKN,,0.00,WeatherDisplay:10.37,2013-08-27 15:58:00,
2013-08-27 12:03:00,81.3,72.6,29.93,SW,225,4.2,4.6,75,0.00,BKN,,0.00,WeatherDisplay:10.37,2013-08-27 16:03:00,
2013-08-27 12:08:00,79.9,72.0,29.93,SW,225,5.9,8.1,77,0.00,BKN,,0.00,WeatherDisplay:10.37,2013-08-27 16:08:00,
2013-08-27 12:13:00,81.1,72.8,29.93,SW,225,4.9,8.3,76,0.00,BKN,,0.00,WeatherDisplay:10.37,2013-08-27 16:13:00,
2013-08-27 12:18:00,79.5,72.4,29.94,West,270,5.1,6.9,79,0.00,BKN,,0.00,WeatherDisplay:10.37,2013-08-27 16:18:00,
2013-08-27 12:23:00,79.2,72.1,29.94,West,270,6.4,8.3,79,0.00,BKN,,0.00,WeatherDisplay:10.37,2013-08-27 16:23:00,
2013-08-27 12:28:00,78.1,71.4,29.94,WSW,248,5.4,5.8,80,0.00,BKN,,0.00,WeatherDisplay:10.37,2013-08-27 16:28:00,
2013-08-27 12:33:00,77.7,71.4,29.94,SSW,202,5.9,6.9,81,0.00,BKN,,0.00,WeatherDisplay:10.37,2013-08-27 16:33:00,
2013-08-27 12:38:00,78.3,72.0,29.93,WSW,248,5.5,6.9,81,0.00,BKN,,0.00,WeatherDisplay:10.37,2013-08-27 16:38:00,
2013-08-27 12:43:00,79.9,72.8,29.93,West,270,4.0,5.8,79,0.00,BKN,,0.00,WeatherDisplay:10.37,2013-08-27 16:43:00,
2013-08-27 12:48:00,81.7,73.0,29.93,West,270,5.3,6.3,75,0.00,BKN,,0.00,WeatherDisplay:10.37,2013-08-27 16:48:00,
2013-08-27 12:53:00,81.1,72.8,29.93,West,270,5.3,5.8,76,0.00,BKN,,0.00,WeatherDisplay:10.37,2013-08-27 16:53:00,
2013-08-27 12:58:00,80.1,72.2,29.93,WSW,248,7.3,10.4,77,0.00,BKN,,0.00,WeatherDisplay:10.37,2013-08-27 16:58:00,
2013-08-27 13:03:00,80.1,72.6,29.94,West,270,4.2,5.8,78,0.00,BKN,,0.00,WeatherDisplay:10.37,2013-08-27 17:03:00,
2013-08-27 13:08:00,80.1,72.6,29.94,SW,225,4.4,6.8,78,0.00,BKN,,0.00,WeatherDisplay:10.37,2013-08-27 17:08:00,
2013-08-27 13:13:00,79.5,72.4,29.94,SW,225,5.4,6.9,79,0.00,OVC,,0.00,WeatherDisplay:10.37,2013-08-27 17:13:00,
2013-08-27 13:18:00,79.0,72.3,29.93,West,270,6.5,7.8,80,0.00,OVC,,0.00,WeatherDisplay:10.37,2013-08-27 17:18:00,
2013-08-27 13:23:00,79.7,72.6,29.93,WSW,248,4.6,5.8,79,0.00,OVC,,0.00,WeatherDisplay:10.37,2013-08-27 17:23:00,
2013-08-27 13:28:00,81.7,73.4,29.93,West,270,7.1,10.4,76,0.00,OVC,,0.00,WeatherDisplay:10.37,2013-08-27 17:28:00,
2013-08-27 13:33:00,81.9,73.2,29.93,NW,315,4.2,7.3,75,0.00,OVC,,0.00,WeatherDisplay:10.37,2013-08-27 17:33:00,
2013-08-27 13:38:00,83.1,73.5,29.93,WSW,248,5.3,6.3,73,0.00,OVC,,0.00,WeatherDisplay:10.37,2013-08-27 17:38:00,
2013-08-27 13:43:00,83.3,73.3,29.92,West,270,4.6,6.9,72,0.00,BKN,,0.00,WeatherDisplay:10.37,2013-08-27 17:43:00,
2013-08-27 13:48:00,83.8,73.4,29.92,WSW,248,3.4,4.6,71,0.00,BKN,,0.00,WeatherDisplay:10.37,2013-08-27 17:48:00,
2013-08-27 13:53:00,84.4,73.1,29.91,WSW,248,4.4,6.9,69,0.00,BKN,,0.00,WeatherDisplay:10.37,2013-08-27 17:53:00,
2013-08-27 13:58:00,85.5,73.3,29.91,West,270,4.8,5.8,67,0.00,BKN,,0.00,WeatherDisplay:10.37,2013-08-27 17:58:00,
2013-08-27 14:03:00,84.0,72.7,29.91,WSW,248,5.2,7.8,69,0.00,BKN,,0.00,WeatherDisplay:10.37,2013-08-27 18:03:00,
2013-08-27 14:08:00,83.3,72.5,29.91,West,270,4.6,5.8,70,0.00,BKN,,0.00,WeatherDisplay:10.37,2013-08-27 18:08:00,
2013-08-27 14:13:00,84.4,72.7,29.90,SSW,202,4.7,5.8,68,0.00,BKN,,0.00,WeatherDisplay:10.37,2013-08-27 18:13:00,
2013-08-27 14:18:00,85.3,73.1,29.90,WNW,292,5.2,6.8,67,0.00,BKN,,0.00,WeatherDisplay:10.37,2013-08-27 18:18:00,
2013-08-27 14:23:00,86.2,73.0,29.90,West,270,4.8,5.8,65,0.00,BKN,,0.00,WeatherDisplay:10.37,2013-08-27 18:23:00,
2013-08-27 14:28:00,85.6,72.0,29.90,West,270,7.0,8.1,64,0.00,BKN,,0.00,WeatherDisplay:10.37,2013-08-27 18:28:00,
2013-08-27 14:33:00,86.2,72.1,29.90,WNW,292,5.9,6.9,63,0.00,BKN,,0.00,WeatherDisplay:10.37,2013-08-27 18:33:00,
2013-08-27 14:38:00,85.8,71.7,29.89,West,270,6.9,9.2,63,0.00,BKN,,0.00,WeatherDisplay:10.37,2013-08-27 18:38:00,
2013-08-27 14:43:00,86.4,71.8,29.89,NE,45,3.5,8.1,62,0.00,BKN,,0.00,WeatherDisplay:10.37,2013-08-27 18:43:00,
2013-08-27 14:48:00,86.7,71.6,29.89,SW,225,6.4,8.1,61,0.00,BKN,,0.00,WeatherDisplay:10.37,2013-08-27 18:48:00,
2013-08-27 14:53:00,84.6,71.1,29.89,West,270,5.1,6.3,64,0.00,BKN,,0.00,WeatherDisplay:10.37,2013-08-27 18:53:00,
2013-08-27 14:58:00,83.5,70.0,29.89,WSW,248,7.4,10.4,64,0.00,BKN,,0.00,WeatherDisplay:10.37,2013-08-27 18:58:00,
2013-08-27 15:03:00,82.4,69.9,29.89,West,270,4.7,8.1,66,0.00,BKN,,0.00,WeatherDisplay:10.37,2013-08-27 19:03:00,
2013-08-27 15:08:00,82.4,70.3,29.89,SW,225,4.9,6.3,67,0.00,BKN,,0.00,WeatherDisplay:10.37,2013-08-27 19:08:00,
2013-08-27 15:13:00,81.7,69.7,29.89,West,270,4.7,5.8,67,0.00,BKN,,0.00,WeatherDisplay:10.37,2013-08-27 19:13:00,
2013-08-27 15:18:00,81.7,70.1,29.89,WSW,248,6.4,8.1,68,0.00,BKN,,0.00,WeatherDisplay:10.37,2013-08-27 19:18:00,
2013-08-27 15:23:00,81.7,70.1,29.89,West,270,5.7,6.9,68,0.00,BKN,,0.00,WeatherDisplay:10.37,2013-08-27 19:23:00,
2013-08-27 15:28:00,81.3,70.2,29.88,West,270,6.4,7.3,69,0.00,BKN,,0.00,WeatherDisplay:10.37,2013-08-27 19:28:00,
2013-08-27 15:33:00,81.0,70.7,29.88,West,270,4.7,6.3,71,0.00,BKN,,0.00,WeatherDisplay:10.37,2013-08-27 19:33:00,
2013-08-27 15:38:00,81.0,70.7,29.89,West,270,4.5,6.3,71,0.00,BKN,,0.00,WeatherDisplay:10.37,2013-08-27 19:38:00,
2013-08-27 15:43:00,81.3,70.6,29.89,SW,225,4.3,5.8,70,0.00,BKN,,0.00,WeatherDisplay:10.37,2013-08-27 19:43:00,
2013-08-27 15:48:00,81.9,71.2,29.89,SW,225,3.8,5.8,70,0.00,BKN,,0.00,WeatherDisplay:10.37,2013-08-27 19:48:00,
2013-08-27 15:53:00,81.9,70.7,29.89,West,270,3.4,5.8,69,0.00,BKN,,0.00,WeatherDisplay:10.37,2013-08-27 19:53:00,
2013-08-27 15:58:00,82.0,70.8,29.89,West,270,2.9,4.6,69,0.00,BKN,,0.00,WeatherDisplay:10.37,2013-08-27 19:58:00,
2013-08-27 16:03:00,82.2,71.0,29.88,SW,225,3.5,8.1,69,0.00,BKN,,0.00,WeatherDisplay:10.37,2013-08-27 20:03:00,
2013-08-27 16:08:00,82.8,70.7,29.88,NW,315,3.1,4.6,67,0.00,BKN,,0.00,WeatherDisplay:10.37,2013-08-27 20:08:00,
2013-08-27 16:13:00,83.3,71.2,29.87,West,270,2.8,5.8,67,0.00,BKN,,0.00,WeatherDisplay:10.37,2013-08-27 20:13:00,
2013-08-27 16:18:00,83.7,71.1,29.87,SW,225,3.6,4.7,66,0.00,BKN,,0.00,WeatherDisplay:10.37,2013-08-27 20:18:00,
2013-08-27 16:23:00,83.1,70.6,29.87,West,270,3.8,4.6,66,0.00,BKN,,0.00,WeatherDisplay:10.37,2013-08-27 20:23:00,
2013-08-27 16:28:00,83.3,70.8,29.87,WSW,248,2.5,3.5,66,0.00,BKN,,0.00,WeatherDisplay:10.37,2013-08-27 20:28:00,
2013-08-27 16:33:00,83.3,70.8,29.87,West,270,4.0,5.8,66,0.00,BKN,,0.00,WeatherDisplay:10.37,2013-08-27 20:33:00,
2013-08-27 16:38:00,83.3,70.8,29.87,West,270,3.4,4.6,66,0.00,BKN,,0.00,WeatherDisplay:10.37,2013-08-27 20:38:00,
2013-08-27 16:43:00,82.9,70.4,29.87,WSW,248,5.2,6.3,66,0.00,BKN,,0.00,WeatherDisplay:10.37,2013-08-27 20:43:00,
2013-08-27 16:48:00,82.6,70.5,29.87,SSW,202,5.5,5.8,67,0.00,BKN,,0.00,WeatherDisplay:10.37,2013-08-27 20:48:00,
2013-08-27 16:53:00,82.4,70.3,29.87,SW,225,5.3,5.8,67,0.00,BKN,,0.00,WeatherDisplay:10.37,2013-08-27 20:53:00,
2013-08-27 16:58:00,82.4,70.8,29.87,SSW,202,4.4,5.8,68,0.00,BKN,,0.00,WeatherDisplay:10.37,2013-08-27 20:58:00,
2013-08-27 17:03:00,82.0,70.8,29.87,West,270,5.1,5.8,69,0.00,BKN,,0.00,WeatherDisplay:10.37,2013-08-27 21:03:00,
2013-08-27 17:08:00,82.4,71.2,29.87,West,270,4.7,5.8,69,0.00,BKN,,0.00,WeatherDisplay:10.37,2013-08-27 21:08:00,
2013-08-27 17:13:00,82.9,71.7,29.87,WSW,248,4.1,6.3,69,0.00,BKN,,0.00,WeatherDisplay:10.37,2013-08-27 21:13:00,
2013-08-27 17:24:00,82.0,70.8,29.87,West,270,6.9,8.1,69,0.00,BKN,,0.00,WeatherDisplay:10.37,2013-08-27 21:24:00,
2013-08-27 17:30:00,81.7,71.0,29.87,West,270,7.0,8.0,70,0.00,BKN,BKN,0.00,WeatherDisplay:10.37,2013-08-27 21:30:00,
2013-08-27 17:39:00,81.7,71.4,29.87,West,270,4.8,5.8,71,0.00,BKN,,0.00,WeatherDisplay:10.37,2013-08-27 21:39:00,
2013-08-27 17:45:00,81.3,71.0,29.87,WSW,250,3.0,6.0,71,0.00,BKN,BKN,0.00,WeatherDisplay:10.37,2013-08-27 21:45:00,
2013-08-27 17:50:00,82.0,71.6,29.87,WSW,246,5.0,6.0,71,0.00,BKN,BKN,0.00,WeatherDisplay:10.37,2013-08-27 21:50:00,
2013-08-27 17:55:00,82.9,71.7,29.87,SW,225,3.8,5.8,69,0.00,BKN,,0.00,WeatherDisplay:10.37,2013-08-27 21:55:00,
2013-08-27 18:00:00,82.6,71.8,29.87,West,270,4.7,6.3,70,0.00,BKN,,0.00,WeatherDisplay:10.37,2013-08-27 22:00:00,
2013-08-27 18:05:00,81.0,71.1,29.87,West,270,4.6,5.8,72,0.00,BKN,,0.00,WeatherDisplay:10.37,2013-08-27 22:05:00,
2013-08-27 18:10:00,80.2,70.8,29.87,WSW,252,5.0,8.0,73,0.00,BKN,BKN,0.00,WeatherDisplay:10.37,2013-08-27 22:10:00,
2013-08-27 18:15:00,79.7,70.7,29.88,SSW,202,3.7,4.6,74,0.00,BKN,,0.00,WeatherDisplay:10.37,2013-08-27 22:15:00,
2013-08-27 18:20:00,79.3,70.7,29.88,WSW,248,4.1,6.9,75,0.00,BKN,,0.00,WeatherDisplay:10.37,2013-08-27 22:20:00,
2013-08-27 18:25:00,78.3,70.5,29.88,SW,225,5.9,6.9,77,0.00,BKN,,0.00,WeatherDisplay:10.37,2013-08-27 22:25:00,
2013-08-27 18:30:00,77.8,70.8,29.88,SW,228,6.0,8.0,79,0.00,BKN,BKN,0.00,WeatherDisplay:10.37,2013-08-27 22:30:00,
2013-08-27 18:35:00,77.2,70.5,29.88,WSW,246,3.0,8.0,80,0.00,BKN,BKN,0.00,WeatherDisplay:10.37,2013-08-27 22:35:00,
2013-08-27 18:40:00,76.5,70.6,29.88,WSW,248,5.7,8.1,82,0.00,BKN,,0.00,WeatherDisplay:10.37,2013-08-27 22:40:00,
2013-08-27 18:45:00,76.5,70.9,29.88,West,270,3.3,4.6,83,0.00,BKN,,0.00,WeatherDisplay:10.37,2013-08-27 22:45:00,
2013-08-27 18:50:00,76.3,70.8,29.88,SW,225,3.8,3.8,83,0.00,BKN,,0.00,WeatherDisplay:10.37,2013-08-27 22:50:00,
2013-08-27 18:55:00,76.1,70.9,29.88,WSW,248,2.2,2.7,84,0.00,BKN,,0.00,WeatherDisplay:10.37,2013-08-27 22:55:00,
2013-08-27 19:00:00,75.7,70.5,29.88,ESE,112,4.6,5.8,84,0.00,BKN,,0.00,WeatherDisplay:10.37,2013-08-27 23:00:00,
2013-08-27 19:05:00,75.6,70.8,29.88,West,265,5.0,8.0,85,0.00,OVC,OVC,0.00,WeatherDisplay:10.37,2013-08-27 23:05:00,
2013-08-27 19:10:00,75.4,70.6,29.88,WSW,248,4.8,4.8,85,0.00,OVC,,0.00,WeatherDisplay:10.37,2013-08-27 23:10:00,
2013-08-27 19:15:00,75.2,70.7,29.88,WSW,248,4.4,5.8,86,0.00,OVC,,0.00,WeatherDisplay:10.37,2013-08-27 23:15:00,
2013-08-27 19:20:00,75.0,70.5,29.88,WSW,242,6.0,8.0,86,0.00,OVC,OVC,0.00,WeatherDisplay:10.37,2013-08-27 23:20:00,
2013-08-27 19:25:00,74.8,70.3,29.88,WSW,252,3.0,6.0,86,0.00,OVC,OVC,0.00,WeatherDisplay:10.37,2013-08-27 23:25:00,
2013-08-27 19:30:00,74.8,70.3,29.89,West,263,3.0,6.0,86,0.00,OVC,OVC,0.00,WeatherDisplay:10.37,2013-08-27 23:30:00,
2013-08-27 19:35:00,74.7,70.2,29.89,West,270,4.7,9.2,86,0.00,OVC,,0.00,WeatherDisplay:10.37,2013-08-27 23:35:00,
2013-08-27 19:40:00,74.5,70.0,29.89,WNW,292,4.2,5.8,86,0.00,OVC,,0.00,WeatherDisplay:10.37,2013-08-27 23:40:00,
2013-08-27 19:45:00,74.3,69.8,29.89,West,270,4.6,4.7,86,0.00,OVC,,0.00,WeatherDisplay:10.37,2013-08-27 23:45:00,
2013-08-27 19:50:00,74.2,70.1,29.88,WSW,246,6.0,8.0,87,0.00,OVC,OVC,0.00,WeatherDisplay:10.37,2013-08-27 23:50:00,
2013-08-27 19:55:00,74.1,70.0,29.88,SSE,158,3.2,4.6,87,0.00,OVC,,0.00,WeatherDisplay:10.37,2013-08-27 23:55:00,
2013-08-27 20:00:00,73.9,69.8,29.88,SW,225,5.7,6.9,87,0.00,OVC,,0.00,WeatherDisplay:10.37,2013-08-28 00:00:00,
2013-08-27 20:05:00,73.9,69.8,29.89,WNW,292,4.6,9.2,87,0.00,OVC,,0.00,WeatherDisplay:10.37,2013-08-28 00:05:00,
2013-08-27 20:10:00,73.8,70.0,29.89,South,180,3.8,5.8,88,0.00,OVC,,0.00,WeatherDisplay:10.37,2013-08-28 00:10:00,
2013-08-27 20:15:00,73.8,70.0,29.89,SW,220,3.0,6.0,88,0.00,OVC,OVC,0.00,WeatherDisplay:10.37,2013-08-28 00:15:00,
2013-08-27 20:20:00,73.8,70.0,29.89,WSW,255,8.0,10.0,88,0.00,OVC,OVC,0.00,WeatherDisplay:10.37,2013-08-28 00:20:00,
2013-08-27 20:25:00,73.6,70.2,29.89,WSW,255,5.0,7.0,89,0.00,OVC,OVC,0.00,WeatherDisplay:10.37,2013-08-28 00:25:00,
2013-08-27 20:30:00,73.6,70.2,29.89,WSW,239,5.0,6.0,89,0.00,OVC,OVC,0.00,WeatherDisplay:10.37,2013-08-28 00:30:00,
2013-08-27 20:35:00,73.6,70.2,29.89,WSW,244,2.0,8.0,89,0.00,OVC,OVC,0.00,WeatherDisplay:10.37,2013-08-28 00:35:00,
2013-08-27 20:40:00,73.6,70.2,29.88,WSW,248,2.5,4.6,89,0.00,OVC,,0.00,WeatherDisplay:10.37,2013-08-28 00:40:00,
2013-08-27 20:45:00,73.6,70.2,29.88,WSW,248,3.6,4.6,89,0.00,OVC,,0.00,WeatherDisplay:10.37,2013-08-28 00:45:00,
2013-08-27 20:50:00,73.6,70.2,29.89,WSW,255,3.0,7.0,89,0.00,OVC,OVC,0.00,WeatherDisplay:10.37,2013-08-28 00:50:00,
2013-08-27 20:55:00,73.6,70.2,29.90,WSW,254,3.0,5.0,89,0.00,OVC,OVC,0.00,WeatherDisplay:10.37,2013-08-28 00:55:00,
2013-08-27 21:00:00,73.6,70.2,29.90,West,259,3.0,6.0,89,0.00,OVC,OVC,0.00,WeatherDisplay:10.37,2013-08-28 01:00:00,
2013-08-27 21:14:00,73.6,70.5,29.90,WSW,248,5.8,6.3,90,0.00,CLR,,0.00,WeatherDisplay:10.37,2013-08-28 01:14:00,
2013-08-27 21:19:00,73.6,70.5,29.89,WSW,248,3.7,3.7,90,0.00,OVC,,0.00,WeatherDisplay:10.37,2013-08-28 01:19:00,
2013-08-27 21:24:00,73.6,70.5,29.89,WSW,248,3.7,3.7,90,0.00,OVC,,0.00,WeatherDisplay:10.37,2013-08-28 01:24:00,
2013-08-27 21:29:00,73.6,70.5,29.89,WSW,248,3.7,3.7,90,0.00,OVC,,0.00,WeatherDisplay:10.37,2013-08-28 01:29:00,
2013-08-27 21:34:00,73.6,70.5,29.89,WSW,248,3.7,3.7,90,0.00,OVC,,0.00,WeatherDisplay:10.37,2013-08-28 01:34:00,
2013-08-27 21:39:00,73.6,70.5,29.89,WSW,248,3.7,3.7,90,0.00,OVC,,0.00,WeatherDisplay:10.37,2013-08-28 01:39:00,
2013-08-27 21:45:00,73.6,70.5,29.89,WSW,248,3.0,4.0,90,0.00,OVC,OVC,0.00,WeatherDisplay:10.37,2013-08-28 01:45:00,
2013-08-27 21:50:00,73.6,70.5,29.89,WSW,248,3.0,4.0,90,0.00,OVC,OVC,0.00,WeatherDisplay:10.37,2013-08-28 01:50:00,
2013-08-27 21:55:00,73.6,70.5,29.89,WSW,248,3.7,3.7,90,0.00,OVC,,0.00,WeatherDisplay:10.37,2013-08-28 01:55:00,
2013-08-27 22:00:00,73.6,70.5,29.89,WSW,248,3.7,3.7,90,0.00,OVC,,0.00,WeatherDisplay:10.37,2013-08-28 02:00:00,
2013-08-27 22:05:00,73.6,70.5,29.89,WSW,248,3.7,3.7,90,0.00,OVC,,0.00,WeatherDisplay:10.37,2013-08-28 02:05:00,
2013-08-27 22:10:00,73.6,70.5,29.89,WSW,248,3.7,3.7,90,0.00,OVC,,0.00,WeatherDisplay:10.37,2013-08-28 02:10:00,
2013-08-27 22:15:00,73.6,70.5,29.89,WSW,248,3.7,3.7,90,0.00,OVC,,0.00,WeatherDisplay:10.37,2013-08-28 02:15:00,
2013-08-27 22:20:00,73.6,70.5,29.89,WSW,248,3.7,3.7,90,0.00,OVC,,0.00,WeatherDisplay:10.37,2013-08-28 02:20:00,
2013-08-27 22:25:00,73.6,70.5,29.89,WSW,248,3.7,3.7,90,0.00,OVC,,0.00,WeatherDisplay:10.37,2013-08-28 02:25:00,
2013-08-27 22:30:00,73.6,70.5,29.89,WSW,248,3.7,3.7,90,0.00,OVC,,0.00,WeatherDisplay:10.37,2013-08-28 02:30:00,
2013-08-27 22:35:00,73.6,70.5,29.89,WSW,248,3.7,3.7,90,0.00,OVC,,0.00,WeatherDisplay:10.37,2013-08-28 02:35:00,
2013-08-27 22:40:00,73.6,70.5,29.89,WSW,248,3.7,3.7,90,0.00,OVC,,0.00,WeatherDisplay:10.37,2013-08-28 02:40:00,
2013-08-27 22:45:00,73.6,70.5,29.89,WSW,248,3.7,3.7,90,0.00,OVC,,0.00,WeatherDisplay:10.37,2013-08-28 02:45:00,
2013-08-27 22:50:00,73.6,70.5,29.89,WSW,248,3.7,3.7,90,0.00,OVC,,0.00,WeatherDisplay:10.37,2013-08-28 02:50:00,
2013-08-27 22:55:00,73.6,70.5,29.89,WSW,248,3.7,3.7,90,0.00,OVC,,0.00,WeatherDisplay:10.37,2013-08-28 02:55:00,
2013-08-27 23:00:00,73.6,70.5,29.89,WSW,248,3.7,3.7,90,0.00,OVC,,0.00,WeatherDisplay:10.37,2013-08-28 03:00:00,
2013-08-27 23:05:00,73.6,70.5,29.89,WSW,248,3.7,3.7,90,0.00,OVC,,0.00,WeatherDisplay:10.37,2013-08-28 03:05:00,
2013-08-27 23:10:00,73.6,70.5,29.89,WSW,248,3.7,3.7,90,0.00,OVC,,0.00,WeatherDisplay:10.37,2013-08-28 03:10:00,
2013-08-27 23:15:00,73.6,70.5,29.89,WSW,248,3.7,3.7,90,0.00,OVC,,0.00,WeatherDisplay:10.37,2013-08-28 03:15:00,
2013-08-27 23:20:00,73.6,70.5,29.89,WSW,248,3.7,3.7,90,0.00,OVC,,0.00,WeatherDisplay:10.37,2013-08-28 03:20:00,
2013-08-27 23:25:00,73.6,70.5,29.89,WSW,248,3.7,3.7,90,0.00,OVC,,0.00,WeatherDisplay:10.37,2013-08-28 03:25:00,
2013-08-27 23:30:00,73.6,70.5,29.89,WSW,248,3.7,3.7,90,0.00,OVC,,0.00,WeatherDisplay:10.37,2013-08-28 03:30:00,
2013-08-27 23:35:00,73.6,70.5,29.89,WSW,248,3.7,3.7,90,0.00,OVC,,0.00,WeatherDisplay:10.37,2013-08-28 03:35:00,
2013-08-27 23:40:00,73.6,70.5,29.89,WSW,248,3.7,3.7,90,0.00,OVC,,0.00,WeatherDisplay:10.37,2013-08-28 03:40:00,
2013-08-27 23:45:00,73.6,70.5,29.89,WSW,248,3.7,3.7,90,0.00,OVC,,0.00,WeatherDisplay:10.37,2013-08-28 03:45:00,
2013-08-27 23:50:00,73.6,70.5,29.89,WSW,248,3.7,3.7,90,0.00,OVC,,0.00,WeatherDisplay:10.37,2013-08-28 03:50:00,
2013-08-27 23:55:00,73.6,70.5,29.89,WSW,248,3.7,3.7,90,0.00,OVC,,0.00,WeatherDisplay:10.37,2013-08-28 03:55:00,